Hermiston, Oregon
Current Conditions -  °F | °C
As of 10:53 AM on Saturday 20 Dec 2014 (Local Time) from KHRI Reporting Station
Overcast Overcast  
Wind Chill: 50°   Ceiling: 6000
Heat Index: 50°   Visibility: 10mi
Dew Point: 42°   Wind: 7mph
Humidity: 74%   Direction: 140°SE
Pressure: 29.75"   Gusts: NA
Location:  45.84°N, 119.28°W
Report Text: KHRI 201853Z AUTO 14006KT 10SM OVC060 10/06 A2975 RMK AO2 SLP076 T01000056
Loading
Personal Weather Stations






























Interactive Weather Map New forecast layout! Learn more

10-Day Weather Forecast

Advertisements
Track Severe Weather on mobile